KPOY

Powell Municipal Airport

Powell, Wyoming, USA
METAR KPOY 150055Z AUTO 34011G19KT 10SM CLR 22/03 A3001 RMK AO2
Observed Flight Rules
Aug-15 @ 00:55 UTC (11 minutes ago) Visual Flight Rules
Wind Visibility Clouds
340° at 11 knots
 Gusting to 19 knots
10 miles
  • Clear skies
Temperatures Readings
Current 22°C / 72°F
Dewpoint 3°C / 37°F
Humidity 29%
Altimeter 30.01" Hg
Pressure 1016 hPa
Elevation 1552
METAR KPOY 150055Z AUTO 34011G19KT 10SM CLR 22/03 A3001 RMK AO2
Observed Flight Rules
Aug-15 @ 00:55 UTC
(11 minutes ago)
VFR
Wind Visibility
340° at 11 knots
 Gusting to 19 knots
10 miles
Clouds
  • Clear skies
Temperature Dewpoint
22°C / 72°F 3°C / 37°F
Humidity Altimeter Pressure
29% 30.01" Hg 1016 hPa